Time;durP1;ratioP1;P1;durP2;ratioP2;P2;SDS_P1;SDS_P2;PMS_P1;PMS_P2;Temp;Humidity;BMP_temperature;BMP_pressure;BME280_temperature;BME280_humidity;BME280_pressure;Samples;Min_cycle;Max_cycle;Signal;HPM_P1;HPM_P2
2021/09/19 00:01:11;;;;;;;29.13;12.52;;;;;;;;;;5021014;28;20025;-48
2021/09/19 00:03:37;;;;;;;12.30;6.82;;;;;;;;;;5020714;28;20033;-45
2021/09/19 00:06:04;;;;;;;31.38;13.45;;;;;;;;;;5022255;28;20048;-45
2021/09/19 00:08:32;;;;;;;19.33;11.13;;;;;;;;;;5021198;28;20359;-47
2021/09/19 00:10:58;;;;;;;41.70;23.55;;;;;;;;;;5021077;28;20150;-45
2021/09/19 00:13:24;;;;;;;30.67;16.35;;;;;;;;;;5020770;28;20021;-47
2021/09/19 00:15:50;;;;;;;26.33;16.02;;;;;;;;;;5022519;28;20465;-49
2021/09/19 00:18:17;;;;;;;26.60;15.25;;;;;;;;;;5043307;28;20029;-44
2021/09/19 00:20:43;;;;;;;29.27;15.75;;;;;;;;;;5077146;28;20021;-50
2021/09/19 00:23:10;;;;;;;16.45;8.23;;;;;;;;;;5076797;28;20041;-50
2021/09/19 00:25:36;;;;;;;17.35;9.00;;;;;;;;;;5076879;28;20032;-54
2021/09/19 00:28:03;;;;;;;16.27;10.20;;;;;;;;;;5076748;28;20155;-51
2021/09/19 00:30:29;;;;;;;12.57;9.07;;;;;;;;;;5076749;28;20078;-46
2021/09/19 00:32:55;;;;;;;26.75;15.85;;;;;;;;;;5076618;28;20030;-51
2021/09/19 00:35:21;;;;;;;21.52;13.82;;;;;;;;;;5076586;28;20048;-56
2021/09/19 00:37:54;;;;;;;33.30;19.67;;;;;;;;;;5076626;28;20067;-52
2021/09/19 00:40:20;;;;;;;16.35;10.40;;;;;;;;;;5076422;28;20028;-54
2021/09/19 00:42:46;;;;;;;14.48;8.85;;;;;;;;;;5076511;28;20021;-53
2021/09/19 00:45:14;;;;;;;14.63;8.25;;;;;;;;;;5076324;28;20039;-48
2021/09/19 00:47:40;;;;;;;10.73;6.40;;;;;;;;;;5074840;28;20455;-55
2021/09/19 00:50:07;;;;;;;8.30;5.80;;;;;;;;;;5076192;28;20483;-50
2021/09/19 00:52:33;;;;;;;12.48;6.35;;;;;;;;;;5076170;28;20465;-50
2021/09/19 00:55:00;;;;;;;13.68;8.90;;;;;;;;;;5076223;28;20032;-50
2021/09/19 00:57:27;;;;;;;9.85;5.90;;;;;;;;;;5076228;28;20024;-49
2021/09/19 00:59:53;;;;;;;7.95;4.50;;;;;;;;;;5076083;28;20412;-54
2021/09/19 01:02:20;;;;;;;6.38;4.35;;;;;;;;;;5076323;28;20025;-54
2021/09/19 01:04:46;;;;;;;10.07;5.55;;;;;;;;;;5075775;28;20041;-54
2021/09/19 01:07:13;;;;;;;7.25;4.60;;;;;;;;;;5076180;28;20496;-55
2021/09/19 01:09:40;;;;;;;8.48;5.40;;;;;;;;;;5075823;28;20031;-48
2021/09/19 01:12:06;;;;;;;5.55;4.05;;;;;;;;;;5076280;28;20510;-48
2021/09/19 01:14:32;;;;;;;6.65;4.30;;;;;;;;;;5076162;28;20468;-47
2021/09/19 01:16:59;;;;;;;10.70;4.45;;;;;;;;;;5075964;28;20032;-48
2021/09/19 01:19:25;;;;;;;6.00;4.10;;;;;;;;;;5076066;28;20028;-47
2021/09/19 01:21:52;;;;;;;5.25;4.00;;;;;;;;;;5075893;28;20052;-50
2021/09/19 01:24:18;;;;;;;6.53;3.60;;;;;;;;;;5075440;28;20139;-46
2021/09/19 01:26:44;;;;;;;7.95;4.15;;;;;;;;;;5075916;28;20235;-51
2021/09/19 01:29:10;;;;;;;8.15;4.15;;;;;;;;;;5075684;28;20487;-53
2021/09/19 01:31:38;;;;;;;5.90;4.82;;;;;;;;;;5075608;28;20464;-52
2021/09/19 01:34:04;;;;;;;9.55;4.72;;;;;;;;;;5075366;28;20033;-47
2021/09/19 01:36:37;;;;;;;5.97;3.83;;;;;;;;;;5075508;28;20040;-47
2021/09/19 01:39:07;;;;;;;8.85;4.15;;;;;;;;;;5075402;28;20027;-47
2021/09/19 01:41:34;;;;;;;4.70;3.97;;;;;;;;;;5075755;28;20502;-46
2021/09/19 01:44:00;;;;;;;7.80;3.97;;;;;;;;;;5075622;28;20036;-47
2021/09/19 01:46:27;;;;;;;6.97;3.80;;;;;;;;;;5075498;28;20089;-48
2021/09/19 01:48:53;;;;;;;5.45;3.75;;;;;;;;;;5075274;28;20166;-56
2021/09/19 01:51:19;;;;;;;9.18;3.75;;;;;;;;;;5075345;28;20071;-49
2021/09/19 01:53:50;;;;;;;6.03;4.03;;;;;;;;;;5075109;28;20414;-51
2021/09/19 01:56:16;;;;;;;8.23;4.55;;;;;;;;;;5075371;28;20020;-60
2021/09/19 01:58:48;;;;;;;7.35;4.78;;;;;;;;;;5075264;28;20029;-50
2021/09/19 02:01:15;;;;;;;8.20;5.35;;;;;;;;;;5075022;28;20032;-55
2021/09/19 02:03:41;;;;;;;11.85;5.18;;;;;;;;;;5074828;28;20036;-56
2021/09/19 02:06:08;;;;;;;10.20;5.47;;;;;;;;;;5075055;28;20040;-50
2021/09/19 02:08:37;;;;;;;7.25;5.25;;;;;;;;;;5074900;28;20020;-52
2021/09/19 02:11:07;;;;;;;7.93;5.45;;;;;;;;;;5074943;28;20056;-49
2021/09/19 02:13:33;;;;;;;8.98;6.03;;;;;;;;;;5074906;28;20428;-53
2021/09/19 02:15:59;;;;;;;8.02;5.90;;;;;;;;;;5075003;28;20020;-58
2021/09/19 02:18:26;;;;;;;9.27;5.32;;;;;;;;;;5075037;28;20072;-58
2021/09/19 02:20:52;;;;;;;5.65;4.57;;;;;;;;;;5074736;28;20035;-53
2021/09/19 02:23:18;;;;;;;6.50;4.53;;;;;;;;;;5074417;28;20047;-51
2021/09/19 02:25:44;;;;;;;5.43;4.32;;;;;;;;;;5074505;28;20036;-51
2021/09/19 02:28:10;;;;;;;6.35;4.47;;;;;;;;;;5074568;28;20024;-54
2021/09/19 02:30:36;;;;;;;5.07;3.95;;;;;;;;;;5074378;28;20032;-53
2021/09/19 02:33:02;;;;;;;9.73;4.20;;;;;;;;;;5074509;28;20388;-56
2021/09/19 02:35:29;;;;;;;7.70;4.57;;;;;;;;;;5074376;28;20028;-51
2021/09/19 02:37:55;;;;;;;8.40;4.82;;;;;;;;;;5074610;28;20020;-49
2021/09/19 02:40:21;;;;;;;8.13;4.35;;;;;;;;;;5073731;28;20472;-52
2021/09/19 02:42:48;;;;;;;5.50;4.47;;;;;;;;;;5074287;28;20444;-50
2021/09/19 02:45:18;;;;;;;7.78;4.93;;;;;;;;;;5074254;28;20476;-48
2021/09/19 02:47:44;;;;;;;6.68;3.85;;;;;;;;;;5074479;28;20033;-53
2021/09/19 02:50:12;;;;;;;7.60;4.30;;;;;;;;;;5074340;28;20029;-47
2021/09/19 02:52:38;;;;;;;5.63;4.47;;;;;;;;;;5074251;28;20020;-50
2021/09/19 02:55:04;;;;;;;6.35;4.50;;;;;;;;;;5074057;28;20028;-53
2021/09/19 02:57:30;;;;;;;6.50;4.28;;;;;;;;;;5074124;28;20065;-51
2021/09/19 02:59:56;;;;;;;7.75;4.75;;;;;;;;;;5074147;28;20078;-50
2021/09/19 03:02:23;;;;;;;8.63;4.88;;;;;;;;;;5073814;28;20456;-55
2021/09/19 03:04:49;;;;;;;6.43;4.75;;;;;;;;;;5073700;28;20447;-49
2021/09/19 03:07:15;;;;;;;5.57;4.10;;;;;;;;;;5074095;28;20028;-48
2021/09/19 03:09:41;;;;;;;6.22;4.55;;;;;;;;;;5073877;28;20073;-51
2021/09/19 03:12:07;;;;;;;8.05;5.28;;;;;;;;;;5073706;28;20113;-48
2021/09/19 03:14:33;;;;;;;8.93;5.00;;;;;;;;;;5073759;28;20029;-48
2021/09/19 03:16:59;;;;;;;7.60;4.97;;;;;;;;;;5073660;28;20097;-54
2021/09/19 03:19:25;;;;;;;8.15;4.53;;;;;;;;;;5073800;28;20021;-56
2021/09/19 03:21:51;;;;;;;8.35;5.20;;;;;;;;;;5073566;28;20024;-47
2021/09/19 03:24:17;;;;;;;6.20;4.75;;;;;;;;;;5073129;28;20385;-47
2021/09/19 03:26:43;;;;;;;8.45;5.20;;;;;;;;;;5073583;28;20021;-57
2021/09/19 03:29:12;;;;;;;8.20;5.20;;;;;;;;;;5073472;28;20028;-56
2021/09/19 03:31:38;;;;;;;10.23;4.72;;;;;;;;;;5073341;28;20509;-53
2021/09/19 03:34:04;;;;;;;8.27;5.18;;;;;;;;;;5073339;28;20025;-51
2021/09/19 03:36:30;;;;;;;9.63;4.90;;;;;;;;;;5073491;28;20023;-54
2021/09/19 03:38:56;;;;;;;6.72;4.63;;;;;;;;;;5073289;28;20020;-50
2021/09/19 03:41:22;;;;;;;6.65;5.18;;;;;;;;;;5073313;28;20071;-57
2021/09/19 03:43:48;;;;;;;7.57;5.38;;;;;;;;;;5073339;28;20025;-50
2021/09/19 03:46:14;;;;;;;6.50;5.28;;;;;;;;;;5073109;28;20127;-49
2021/09/19 03:48:40;;;;;;;9.27;4.95;;;;;;;;;;5073030;28;20028;-55
2021/09/19 03:51:08;;;;;;;8.88;5.35;;;;;;;;;;5072828;28;20029;-55
2021/09/19 03:53:35;;;;;;;9.40;5.45;;;;;;;;;;5072380;28;20013;-48
2021/09/19 03:56:01;;;;;;;7.53;5.20;;;;;;;;;;5071743;28;20108;-48
2021/09/19 03:58:27;;;;;;;8.27;6.13;;;;;;;;;;5072928;28;20048;-48
2021/09/19 04:00:53;;;;;;;11.38;5.63;;;;;;;;;;5072764;28;20021;-49
2021/09/19 04:03:19;;;;;;;8.13;5.55;;;;;;;;;;5072775;28;20123;-54
2021/09/19 04:05:45;;;;;;;10.38;5.57;;;;;;;;;;5073121;28;20037;-50
2021/09/19 04:08:11;;;;;;;7.72;5.40;;;;;;;;;;5073032;28;20017;-57
2021/09/19 04:10:37;;;;;;;9.48;4.97;;;;;;;;;;5072760;28;20029;-53
2021/09/19 04:13:03;;;;;;;11.05;5.78;;;;;;;;;;5072818;28;20040;-56
2021/09/19 04:15:31;;;;;;;8.05;5.40;;;;;;;;;;5073105;28;20081;-52
2021/09/19 04:17:58;;;;;;;9.85;6.03;;;;;;;;;;5072843;28;20046;-58
2021/09/19 04:20:24;;;;;;;9.43;5.70;;;;;;;;;;5073039;28;20032;-50
2021/09/19 04:22:50;;;;;;;8.00;5.35;;;;;;;;;;5072496;28;20048;-56
2021/09/19 04:25:16;;;;;;;9.73;5.28;;;;;;;;;;5072571;28;20043;-47
2021/09/19 04:27:42;;;;;;;7.20;5.65;;;;;;;;;;5072785;28;20103;-47
2021/09/19 04:30:08;;;;;;;10.20;5.95;;;;;;;;;;5072791;28;20035;-51
2021/09/19 04:32:35;;;;;;;8.73;5.50;;;;;;;;;;5072638;28;20028;-57
2021/09/19 04:35:01;;;;;;;8.25;5.32;;;;;;;;;;5072703;28;20364;-54
2021/09/19 04:37:27;;;;;;;9.38;6.15;;;;;;;;;;5073227;28;20021;-47
2021/09/19 04:39:53;;;;;;;14.40;6.45;;;;;;;;;;5072966;28;20144;-45
2021/09/19 04:42:22;;;;;;;9.38;5.57;;;;;;;;;;5072808;28;20021;-53
2021/09/19 04:44:48;;;;;;;9.13;5.38;;;;;;;;;;5072765;28;20551;-48
2021/09/19 04:47:16;;;;;;;10.75;6.20;;;;;;;;;;5072588;28;20029;-53
2021/09/19 04:49:43;;;;;;;10.57;5.13;;;;;;;;;;5072709;28;20049;-46
2021/09/19 04:52:09;;;;;;;6.85;5.28;;;;;;;;;;5072598;28;20449;-56
2021/09/19 04:54:35;;;;;;;10.75;5.68;;;;;;;;;;5072457;28;20036;-48
2021/09/19 04:57:02;;;;;;;9.75;5.35;;;;;;;;;;5072658;28;20016;-46
2021/09/19 04:59:28;;;;;;;9.15;5.10;;;;;;;;;;5072614;28;20028;-52
2021/09/19 05:01:54;;;;;;;10.65;5.78;;;;;;;;;;5072489;28;20029;-57
2021/09/19 05:04:20;;;;;;;9.13;5.50;;;;;;;;;;5074780;28;20369;-46
2021/09/19 05:06:48;;;;;;;9.65;5.22;;;;;;;;;;5076281;28;20029;-56
2021/09/19 05:09:14;;;;;;;6.53;4.78;;;;;;;;;;5075995;28;20016;-58
2021/09/19 05:11:40;;;;;;;7.57;4.90;;;;;;;;;;5076028;28;20464;-56
2021/09/19 05:14:06;;;;;;;6.93;5.15;;;;;;;;;;5076083;28;20029;-58
2021/09/19 05:16:33;;;;;;;8.57;5.28;;;;;;;;;;5076119;28;20024;-59
2021/09/19 05:18:59;;;;;;;10.77;5.60;;;;;;;;;;5075844;28;20123;-57
2021/09/19 05:21:25;;;;;;;11.77;5.22;;;;;;;;;;5074560;28;20453;-52
2021/09/19 05:23:56;;;;;;;8.90;4.93;;;;;;;;;;5075886;28;20488;-53
2021/09/19 05:26:22;;;;;;;8.02;5.00;;;;;;;;;;5075777;28;20036;-51
2021/09/19 05:28:48;;;;;;;6.93;5.07;;;;;;;;;;5075926;28;20078;-54
2021/09/19 05:31:14;;;;;;;16.25;4.95;;;;;;;;;;5075650;28;20043;-56
2021/09/19 05:33:41;;;;;;;12.70;4.95;;;;;;;;;;5075516;28;20060;-55
2021/09/19 05:36:07;;;;;;;6.80;4.78;;;;;;;;;;5075807;28;20028;-56
2021/09/19 05:38:34;;;;;;;5.95;4.88;;;;;;;;;;5075807;28;20029;-56
2021/09/19 05:41:00;;;;;;;5.07;4.57;;;;;;;;;;5075432;28;20527;-56
2021/09/19 05:43:26;;;;;;;7.30;5.63;;;;;;;;;;5075592;28;20102;-58
2021/09/19 05:45:55;;;;;;;12.85;6.70;;;;;;;;;;5075637;28;20032;-59
2021/09/19 05:48:21;;;;;;;18.17;11.20;;;;;;;;;;5075630;28;20021;-58
2021/09/19 05:50:47;;;;;;;18.45;10.43;;;;;;;;;;5075440;28;20107;-52
2021/09/19 05:53:13;;;;;;;11.18;8.18;;;;;;;;;;5075438;28;20029;-58
2021/09/19 05:55:39;;;;;;;13.77;9.32;;;;;;;;;;5075280;28;20403;-58
2021/09/19 05:58:05;;;;;;;17.13;10.25;;;;;;;;;;5075509;28;20017;-57
2021/09/19 06:00:31;;;;;;;9.73;7.30;;;;;;;;;;5075301;28;20024;-59
2021/09/19 06:02:57;;;;;;;12.70;9.38;;;;;;;;;;5074904;28;20376;-56
2021/09/19 06:05:23;;;;;;;7.53;5.25;;;;;;;;;;5075119;28;20039;-56
2021/09/19 06:07:49;;;;;;;7.03;5.35;;;;;;;;;;5075091;28;20060;-58
2021/09/19 06:10:15;;;;;;;10.07;5.97;;;;;;;;;;5075003;28;20029;-51
2021/09/19 06:12:42;;;;;;;6.20;4.90;;;;;;;;;;5075108;28;20023;-56
2021/09/19 06:15:08;;;;;;;8.02;4.80;;;;;;;;;;5074103;28;20168;-57
2021/09/19 06:17:34;;;;;;;5.63;4.28;;;;;;;;;;5074843;28;20495;-56
2021/09/19 06:20:01;;;;;;;7.32;4.70;;;;;;;;;;5074795;28;20032;-58
2021/09/19 06:22:27;;;;;;;4.68;4.20;;;;;;;;;;5074960;28;20025;-57
2021/09/19 06:24:53;;;;;;;6.43;4.90;;;;;;;;;;5074490;28;20484;-54
2021/09/19 06:27:24;;;;;;;5.57;4.70;;;;;;;;;;5074881;28;20028;-57
2021/09/19 06:29:50;;;;;;;6.32;4.63;;;;;;;;;;5074874;28;20040;-52
2021/09/19 06:32:16;;;;;;;5.70;4.43;;;;;;;;;;5074423;28;20052;-51
2021/09/19 06:34:42;;;;;;;7.28;4.70;;;;;;;;;;5074356;28;20041;-57
2021/09/19 06:37:09;;;;;;;7.43;3.97;;;;;;;;;;5074632;28;20024;-57
2021/09/19 06:39:35;;;;;;;4.00;3.60;;;;;;;;;;5074364;28;20044;-56
2021/09/19 06:42:01;;;;;;;4.80;4.00;;;;;;;;;;5073238;28;20028;-54
2021/09/19 06:44:27;;;;;;;4.55;3.92;;;;;;;;;;5074486;28;20103;-56
2021/09/19 06:46:56;;;;;;;4.93;3.92;;;;;;;;;;5074407;28;20033;-56
2021/09/19 06:49:23;;;;;;;4.18;3.78;;;;;;;;;;5074690;28;20051;-56
2021/09/19 06:51:49;;;;;;;4.93;3.80;;;;;;;;;;5074230;28;20460;-53
2021/09/19 06:54:15;;;;;;;7.10;4.05;;;;;;;;;;5074260;28;20025;-53
2021/09/19 06:56:41;;;;;;;5.40;4.47;;;;;;;;;;5074099;28;20365;-56
2021/09/19 06:59:07;;;;;;;4.38;3.97;;;;;;;;;;5074438;28;20029;-56
2021/09/19 07:01:34;;;;;;;4.57;4.15;;;;;;;;;;5074118;28;20112;-56
2021/09/19 07:04:00;;;;;;;3.70;3.40;;;;;;;;;;5073797;28;20036;-56
2021/09/19 07:06:26;;;;;;;4.05;3.58;;;;;;;;;;5073956;28;20036;-56
2021/09/19 07:08:52;;;;;;;5.03;3.05;;;;;;;;;;5073993;28;20021;-54
2021/09/19 07:11:18;;;;;;;3.45;3.00;;;;;;;;;;5073074;28;20028;-55
2021/09/19 07:13:44;;;;;;;5.53;2.88;;;;;;;;;;5073974;28;20048;-56
2021/09/19 07:16:10;;;;;;;2.75;2.30;;;;;;;;;;5073896;28;20145;-56
2021/09/19 07:18:36;;;;;;;2.85;2.65;;;;;;;;;;5073821;28;20107;-57
2021/09/19 07:21:05;;;;;;;2.53;2.33;;;;;;;;;;5073775;28;20024;-56
2021/09/19 07:23:31;;;;;;;5.70;2.45;;;;;;;;;;5073574;28;20070;-57
2021/09/19 07:25:57;;;;;;;5.35;2.88;;;;;;;;;;5073662;28;20041;-57
2021/09/19 07:28:23;;;;;;;3.53;2.70;;;;;;;;;;5073651;28;20469;-55
2021/09/19 07:30:49;;;;;;;6.03;2.67;;;;;;;;;;5059691;28;20041;-53
2021/09/19 07:33:16;;;;;;;4.38;2.60;;;;;;;;;;5053117;28;20033;-57
2021/09/19 07:35:42;;;;;;;4.43;2.92;;;;;;;;;;5053274;28;20025;-56
2021/09/19 07:38:08;;;;;;;5.65;3.55;;;;;;;;;;5053346;28;20461;-56
2021/09/19 07:40:34;;;;;;;13.98;9.68;;;;;;;;;;5053138;28;20150;-56
2021/09/19 07:43:00;;;;;;;23.45;17.60;;;;;;;;;;5053267;28;20028;-55
2021/09/19 07:45:30;;;;;;;8.48;6.13;;;;;;;;;;5053150;28;20469;-56
2021/09/19 07:47:56;;;;;;;9.95;4.93;;;;;;;;;;5053061;28;20043;-56
2021/09/19 07:50:22;;;;;;;3.97;2.83;;;;;;;;;;5053467;28;20032;-55
2021/09/19 07:52:48;;;;;;;8.07;3.35;;;;;;;;;;5053273;28;20120;-50
2021/09/19 07:55:17;;;;;;;8.77;4.32;;;;;;;;;;5053175;28;20392;-55
2021/09/19 07:57:43;;;;;;;10.88;8.43;;;;;;;;;;5053153;28;20110;-55
2021/09/19 08:00:12;;;;;;;39.70;24.10;;;;;;;;;;5053021;28;20025;-54
2021/09/19 08:02:38;;;;;;;72.68;50.92;;;;;;;;;;5052941;28;20477;-56
2021/09/19 08:05:05;;;;;;;9.20;4.90;;;;;;;;;;5052851;28;20045;-55
2021/09/19 08:07:33;;;;;;;77.88;60.17;;;;;;;;;;5053067;28;20029;-51
2021/09/19 08:09:59;;;;;;;15.55;11.32;;;;;;;;;;5052895;28;20029;-55
2021/09/19 08:12:25;;;;;;;9.15;6.13;;;;;;;;;;5053073;28;20082;-55
2021/09/19 08:14:51;;;;;;;12.00;8.48;;;;;;;;;;5052882;28;20033;-55
2021/09/19 08:17:17;;;;;;;6.53;3.40;;;;;;;;;;5052843;28;20104;-55
2021/09/19 08:19:43;;;;;;;5.53;3.47;;;;;;;;;;5052931;28;20461;-55
2021/09/19 08:22:09;;;;;;;34.72;23.40;;;;;;;;;;5053065;28;20032;-55
2021/09/19 08:24:35;;;;;;;23.02;12.43;;;;;;;;;;5052788;28;20041;-56
2021/09/19 08:27:03;;;;;;;43.22;26.80;;;;;;;;;;5052879;28;20037;-56
2021/09/19 08:29:29;;;;;;;27.83;16.42;;;;;;;;;;5052872;28;20484;-58
2021/09/19 08:31:55;;;;;;;179.98;110.93;;;;;;;;;;5052985;28;20040;-58
2021/09/19 08:34:21;;;;;;;29.23;17.35;;;;;;;;;;5036712;28;20507;-57
2021/09/19 08:36:48;;;;;;;83.90;50.78;;;;;;;;;;5021975;28;20785;-53
2021/09/19 08:39:14;;;;;;;45.05;25.42;;;;;;;;;;5023305;28;20025;-56
2021/09/19 08:41:40;;;;;;;18.75;8.85;;;;;;;;;;5024786;28;20040;-53
2021/09/19 08:44:06;;;;;;;7.35;3.88;;;;;;;;;;5024774;28;20036;-57
2021/09/19 08:46:32;;;;;;;12.43;6.13;;;;;;;;;;5024635;28;20037;-48
2021/09/19 08:48:58;;;;;;;3.80;2.00;;;;;;;;;;5024580;28;20021;-55
2021/09/19 08:51:27;;;;;;;5.90;2.05;;;;;;;;;;5024985;28;20107;-53
2021/09/19 08:53:53;;;;;;;2.75;2.20;;;;;;;;;;5024815;28;20025;-51
2021/09/19 08:56:23;;;;;;;25.27;9.32;;;;;;;;;;5024535;28;20104;-50
2021/09/19 08:58:49;;;;;;;6.97;5.43;;;;;;;;;;5025952;28;20029;-52
2021/09/19 09:01:15;;;;;;;36.50;17.45;;;;;;;;;;5025231;28;20029;-51
2021/09/19 09:03:41;;;;;;;9.73;5.63;;;;;;;;;;5024775;28;20033;-59
2021/09/19 09:06:10;;;;;;;3.88;2.65;;;;;;;;;;5024629;28;20036;-53
2021/09/19 09:08:36;;;;;;;93.63;59.10;;;;;;;;;;5024549;28;20044;-59
2021/09/19 09:11:04;;;;;;;21.10;13.10;;;;;;;;;;5024334;28;20087;-54
2021/09/19 09:13:31;;;;;;;19.15;12.55;;;;;;;;;;5039477;28;20901;-50
2021/09/19 09:16:05;;;;;;;5.95;3.08;;;;;;;;;;5024053;28;20474;-55
2021/09/19 09:18:35;;;;;;;6.80;5.03;;;;;;;;;;5023920;28;20071;-54
2021/09/19 09:21:12;;;;;;;15.55;10.05;;;;;;;;;;5024308;28;20018;-49
2021/09/19 09:23:38;;;;;;;9.38;3.70;;;;;;;;;;5024797;28;20084;-48
2021/09/19 09:26:23;;;;;;;23.73;18.50;;;;;;;;;;5023598;28;20041;-55
2021/09/19 09:29:02;;;;;;;19.63;7.45;;;;;;;;;;5024004;28;20048;-48
2021/09/19 09:31:34;;;;;;;42.83;17.95;;;;;;;;;;5025323;28;20051;-47
2021/09/19 09:34:00;;;;;;;4.68;2.63;;;;;;;;;;5023606;28;20037;-49
2021/09/19 09:36:31;;;;;;;1.85;1.02;;;;;;;;;;5024095;28;20083;-52
2021/09/19 09:38:57;;;;;;;15.57;8.10;;;;;;;;;;5023589;28;20040;-47
2021/09/19 09:41:38;;;;;;;9.80;5.15;;;;;;;;;;5024782;28;20493;-46
2021/09/19 09:44:04;;;;;;;20.05;10.00;;;;;;;;;;5024730;28;20025;-50
2021/09/19 09:46:30;;;;;;;24.65;9.88;;;;;;;;;;5023616;28;20040;-48
2021/09/19 09:48:56;;;;;;;23.52;10.18;;;;;;;;;;5023396;28;20022;-52
2021/09/19 09:51:23;;;;;;;8.90;3.60;;;;;;;;;;5023303;28;20025;-51
2021/09/19 09:53:54;;;;;;;7.20;3.50;;;;;;;;;;5023806;28;20052;-48
2021/09/19 09:56:23;;;;;;;15.50;12.05;;;;;;;;;;5024534;28;20570;-53
2021/09/19 09:58:50;;;;;;;8.23;3.33;;;;;;;;;;5024076;28;20576;-48
2021/09/19 10:01:16;;;;;;;6.85;3.65;;;;;;;;;;5049402;28;20024;-54
2021/09/19 10:03:44;;;;;;;37.25;23.20;;;;;;;;;;5074883;28;20483;-53
2021/09/19 10:06:11;;;;;;;3.75;2.33;;;;;;;;;;5075219;28;20525;-54
2021/09/19 10:08:38;;;;;;;14.77;7.88;;;;;;;;;;5074977;28;20453;-53
2021/09/19 10:11:07;;;;;;;9.10;5.57;;;;;;;;;;5074835;28;20033;-53
2021/09/19 10:13:34;;;;;;;2.42;1.65;;;;;;;;;;5075035;28;20044;-54
2021/09/19 10:16:01;;;;;;;9.00;5.97;;;;;;;;;;5074933;28;20039;-53
2021/09/19 10:18:28;;;;;;;13.15;7.75;;;;;;;;;;5074830;28;20020;-53
2021/09/19 10:20:54;;;;;;;5.10;2.58;;;;;;;;;;5075038;28;20056;-54
2021/09/19 10:23:22;;;;;;;9.23;5.57;;;;;;;;;;5074592;28;20045;-53
2021/09/19 10:26:00;;;;;;;12.43;6.85;;;;;;;;;;5074639;28;20040;-52
2021/09/19 10:28:26;;;;;;;4.80;3.17;;;;;;;;;;5074688;28;20028;-54
2021/09/19 10:31:11;;;;;;;4.50;2.55;;;;;;;;;;5074730;28;20029;-54
2021/09/19 10:33:39;;;;;;;5.93;2.63;;;;;;;;;;5074437;28;20028;-52
2021/09/19 10:36:26;;;;;;;2.70;2.30;;;;;;;;;;5074688;28;20024;-54
2021/09/19 10:38:52;;;;;;;3.83;3.20;;;;;;;;;;5074541;28;20056;-52
2021/09/19 10:41:23;;;;;;;4.40;2.90;;;;;;;;;;5073905;28;20440;-54
2021/09/19 10:43:54;;;;;;;5.65;2.22;;;;;;;;;;5052671;28;20044;-53
2021/09/19 10:46:36;;;;;;;11.90;4.78;;;;;;;;;;5051355;28;20043;-54
2021/09/19 10:49:28;;;;;;;11.57;7.32;;;;;;;;;;5051493;28;20468;-54
2021/09/19 10:52:00;;;;;;;9.77;3.70;;;;;;;;;;5052003;28;20166;-53
2021/09/19 10:54:49;;;;;;;15.65;10.52;;;;;;;;;;5053705;28;20021;-53
2021/09/19 10:57:17;;;;;;;15.55;3.20;;;;;;;;;;5032970;28;20033;-53
2021/09/19 11:00:01;;;;;;;11.55;2.08;;;;;;;;;;5034610;28;20031;-53
2021/09/19 11:02:28;;;;;;;3.28;1.95;;;;;;;;;;5050647;28;20027;-52
2021/09/19 11:05:14;;;;;;;8.77;5.25;;;;;;;;;;5053296;28;20036;-55
2021/09/19 11:07:44;;;;;;;9.50;5.32;;;;;;;;;;5048600;28;20049;-52
2021/09/19 11:10:10;;;;;;;43.97;30.05;;;;;;;;;;5051052;28;20088;-43
2021/09/19 11:12:51;;;;;;;23.00;13.98;;;;;;;;;;5053398;28;20491;-54
2021/09/19 11:15:24;;;;;;;6.07;4.50;;;;;;;;;;5052085;28;20106;-50
2021/09/19 11:17:51;;;;;;;13.00;9.55;;;;;;;;;;5051313;28;20017;-44
2021/09/19 11:20:17;;;;;;;6.43;2.85;;;;;;;;;;5051608;28;20036;-49
2021/09/19 11:22:45;;;;;;;11.00;3.67;;;;;;;;;;5053252;28;20017;-52
2021/09/19 11:25:14;;;;;;;15.35;4.05;;;;;;;;;;5053086;28;20086;-52
2021/09/19 11:27:43;;;;;;;24.08;15.68;;;;;;;;;;5052944;28;20150;-54
2021/09/19 11:30:10;;;;;;;5.63;2.78;;;;;;;;;;5050572;28;20017;-50
2021/09/19 11:32:36;;;;;;;3.05;1.88;;;;;;;;;;5052972;28;20539;-54
2021/09/19 11:35:03;;;;;;;19.02;7.47;;;;;;;;;;5052708;28;20033;-47
2021/09/19 11:37:29;;;;;;;3.67;2.13;;;;;;;;;;5052913;28;20021;-55
2021/09/19 11:39:55;;;;;;;34.30;11.45;;;;;;;;;;5053207;28;20040;-58
2021/09/19 11:42:25;;;;;;;45.53;14.30;;;;;;;;;;5052948;28;20025;-56
2021/09/19 11:44:52;;;;;;;23.48;7.85;;;;;;;;;;5050962;28;20016;-53
2021/09/19 11:47:20;;;;;;;72.80;41.15;;;;;;;;;;5052848;28;20108;-54
2021/09/19 11:49:46;;;;;;;3.75;2.88;;;;;;;;;;5052819;28;20017;-54
2021/09/19 11:52:13;;;;;;;41.10;24.70;;;;;;;;;;5052968;28;20370;-53
2021/09/19 11:54:43;;;;;;;3.15;2.45;;;;;;;;;;5052916;28;20013;-54
2021/09/19 11:57:10;;;;;;;27.73;15.20;;;;;;;;;;5050321;28;20088;-53
2021/09/19 11:59:39;;;;;;;8.98;4.07;;;;;;;;;;5052717;28;20017;-53
2021/09/19 12:02:05;;;;;;;86.47;51.30;;;;;;;;;;5052448;28;20036;-53
2021/09/19 12:04:32;;;;;;;63.80;38.03;;;;;;;;;;5052512;28;20051;-53
2021/09/19 12:06:58;;;;;;;49.05;31.00;;;;;;;;;;5052462;28;20035;-53
2021/09/19 12:09:24;;;;;;;84.70;45.97;;;;;;;;;;5052518;28;20032;-52
2021/09/19 12:11:52;;;;;;;16.98;11.40;;;;;;;;;;5052458;28;20039;-52
2021/09/19 12:14:26;;;;;;;50.30;25.42;;;;;;;;;;5055224;28;20025;-53
2021/09/19 12:17:12;;;;;;;19.67;10.13;;;;;;;;;;5053999;28;20021;-54
2021/09/19 12:19:39;;;;;;;5.30;3.13;;;;;;;;;;5057312;28;20090;-50
2021/09/19 12:22:09;;;;;;;37.83;30.65;;;;;;;;;;5057126;28;20024;-54
2021/09/19 12:24:37;;;;;;;16.65;12.23;;;;;;;;;;5056992;28;20045;-55
2021/09/19 12:27:12;;;;;;;47.10;24.02;;;;;;;;;;5056833;28;20472;-52
2021/09/19 12:29:39;;;;;;;69.47;39.60;;;;;;;;;;5056285;28;20421;-51
2021/09/19 12:32:06;;;;;;;55.78;35.80;;;;;;;;;;5056395;28;20033;-52
2021/09/19 12:34:32;;;;;;;21.77;12.95;;;;;;;;;;5056165;28;20503;-49
2021/09/19 12:36:59;;;;;;;11.43;7.20;;;;;;;;;;5056356;28;20025;-52
2021/09/19 12:39:26;;;;;;;2.17;1.15;;;;;;;;;;5056199;28;20033;-53
2021/09/19 12:41:56;;;;;;;20.10;14.48;;;;;;;;;;5056085;28;20465;-50
2021/09/19 12:44:23;;;;;;;27.15;15.70;;;;;;;;;;5056069;28;20052;-52
2021/09/19 12:46:51;;;;;;;31.40;22.75;;;;;;;;;;5056079;28;20032;-53
2021/09/19 12:49:24;;;;;;;4.20;2.67;;;;;;;;;;5055723;28;20102;-54
2021/09/19 12:52:08;;;;;;;20.67;10.50;;;;;;;;;;5055665;28;20473;-52
2021/09/19 12:54:36;;;;;;;54.33;36.35;;;;;;;;;;5053214;28;20125;-51
2021/09/19 12:57:02;;;;;;;43.65;30.63;;;;;;;;;;5053303;28;20028;-49
2021/09/19 12:59:29;;;;;;;3.45;2.92;;;;;;;;;;5055623;28;20021;-51
2021/09/19 13:01:55;;;;;;;17.95;10.85;;;;;;;;;;5052961;28;20025;-51
2021/09/19 13:04:21;;;;;;;10.05;4.95;;;;;;;;;;5026816;28;20036;-52
2021/09/19 13:06:47;;;;;;;3.45;2.53;;;;;;;;;;5024583;28;20693;-49
2021/09/19 13:09:13;;;;;;;4.47;2.05;;;;;;;;;;5024252;28;20429;-52
2021/09/19 13:11:40;;;;;;;3.90;1.48;;;;;;;;;;5023863;28;20025;-45
2021/09/19 13:14:06;;;;;;;4.90;1.45;;;;;;;;;;5024576;28;20060;-49
2021/09/19 13:16:32;;;;;;;14.70;8.20;;;;;;;;;;5024766;28;20516;-51
2021/09/19 13:18:58;;;;;;;22.52;15.10;;;;;;;;;;5024305;28;20025;-46
2021/09/19 13:21:24;;;;;;;17.88;10.63;;;;;;;;;;5024360;28;20064;-45
2021/09/19 13:23:50;;;;;;;8.70;5.00;;;;;;;;;;5023644;28;20564;-48
2021/09/19 13:26:16;;;;;;;5.55;4.63;;;;;;;;;;5023771;28;20033;-47
2021/09/19 13:28:43;;;;;;;34.78;24.48;;;;;;;;;;5023898;28;20025;-50
2021/09/19 13:31:09;;;;;;;5.13;3.90;;;;;;;;;;5026014;28;20112;-49
2021/09/19 13:33:37;;;;;;;10.75;5.78;;;;;;;;;;5028490;28;20032;-52
2021/09/19 13:36:03;;;;;;;11.13;6.18;;;;;;;;;;5028559;28;20017;-44
2021/09/19 13:38:29;;;;;;;10.65;6.03;;;;;;;;;;5029426;28;20449;-48
2021/09/19 13:40:56;;;;;;;20.77;11.80;;;;;;;;;;5027361;28;20025;-46
2021/09/19 13:43:22;;;;;;;31.23;17.52;;;;;;;;;;5023743;28;20136;-46
2021/09/19 13:45:48;;;;;;;16.73;9.15;;;;;;;;;;5024843;28;20051;-44
2021/09/19 13:48:14;;;;;;;9.98;5.68;;;;;;;;;;5023968;28;20523;-48
2021/09/19 13:50:41;;;;;;;8.88;5.40;;;;;;;;;;5024684;28;20052;-52
2021/09/19 13:53:07;;;;;;;4.82;2.28;;;;;;;;;;5023766;28;20033;-46
2021/09/19 13:55:33;;;;;;;5.57;2.42;;;;;;;;;;5023567;28;20033;-49
2021/09/19 13:57:59;;;;;;;13.35;5.53;;;;;;;;;;5023576;28;20029;-48
2021/09/19 14:00:25;;;;;;;5.13;2.58;;;;;;;;;;5023512;28;20123;-52
2021/09/19 14:02:51;;;;;;;21.17;13.40;;;;;;;;;;5023293;28;20096;-47
2021/09/19 14:05:17;;;;;;;13.93;6.72;;;;;;;;;;5023102;28;20022;-46
2021/09/19 14:07:45;;;;;;;35.72;23.75;;;;;;;;;;5023297;28;20056;-53
2021/09/19 14:10:12;;;;;;;27.33;5.30;;;;;;;;;;5024076;28;21891;-51
2021/09/19 14:12:38;;;;;;;11.48;7.70;;;;;;;;;;5023131;28;20116;-46
2021/09/19 14:15:04;;;;;;;9.35;4.97;;;;;;;;;;5022941;28;20366;-47
2021/09/19 14:17:32;;;;;;;23.13;3.60;;;;;;;;;;5023362;28;20021;-49
2021/09/19 14:19:59;;;;;;;21.38;6.70;;;;;;;;;;5023100;28;20160;-46
2021/09/19 14:22:25;;;;;;;56.65;5.57;;;;;;;;;;5023031;28;20030;-47
2021/09/19 14:24:51;;;;;;;31.85;4.03;;;;;;;;;;5023086;28;20046;-46
2021/09/19 14:27:18;;;;;;;16.13;2.80;;;;;;;;;;5024784;28;21011;-49
2021/09/19 14:29:46;;;;;;;11.50;2.30;;;;;;;;;;5022116;28;20048;-46
2021/09/19 14:32:12;;;;;;;24.38;10.52;;;;;;;;;;5022752;28;20171;-48
2021/09/19 14:34:38;;;;;;;35.13;16.58;;;;;;;;;;5023093;28;20155;-50